createdAt,value
2017-12-20T00:02:11.327Z,80.97
2017-12-20T00:04:39.579Z,80.97
2017-12-20T00:07:07.879Z,81.00
2017-12-20T00:09:36.134Z,80.91
2017-12-20T00:12:04.430Z,81.38
2017-12-20T00:14:32.685Z,80.99
2017-12-20T00:17:00.967Z,81.22
2017-12-20T00:19:29.757Z,81.31
2017-12-20T00:21:58.031Z,81.46
2017-12-20T00:24:26.319Z,81.60
2017-12-20T00:26:54.579Z,81.33
2017-12-20T00:29:22.880Z,80.68
2017-12-20T00:31:51.189Z,80.47
2017-12-20T00:34:19.480Z,80.08
2017-12-20T00:36:47.751Z,80.22
2017-12-20T00:39:16.079Z,80.30
2017-12-20T00:41:44.356Z,80.38
2017-12-20T00:44:12.616Z,80.42
2017-12-20T00:46:40.927Z,80.38
2017-12-20T00:49:09.188Z,80.61
2017-12-20T00:51:37.491Z,80.54
2017-12-20T00:54:05.757Z,81.01
2017-12-20T00:56:34.166Z,80.65
2017-12-20T00:59:02.703Z,80.50
2017-12-20T01:01:30.996Z,80.16
2017-12-20T01:03:59.271Z,79.96
2017-12-20T01:06:27.559Z,80.19
2017-12-20T01:08:55.846Z,80.62
2017-12-20T01:11:24.131Z,80.74
2017-12-20T01:13:52.607Z,80.56
2017-12-20T01:16:20.861Z,80.56
2017-12-20T01:18:49.140Z,80.79
2017-12-20T01:21:17.397Z,80.53
2017-12-20T01:23:45.683Z,80.47
2017-12-20T01:26:13.963Z,80.75
2017-12-20T01:28:42.251Z,80.59
2017-12-20T01:31:10.511Z,80.59
2017-12-20T01:33:38.849Z,80.64
2017-12-20T01:36:07.268Z,81.20
2017-12-20T01:38:35.906Z,81.59
2017-12-20T01:41:05.122Z,81.25
2017-12-20T01:43:33.400Z,81.42
2017-12-20T01:46:02.536Z,81.37
2017-12-20T01:48:30.827Z,81.25
2017-12-20T01:50:59.104Z,81.15
2017-12-20T01:53:27.348Z,81.50
2017-12-20T01:55:55.639Z,81.07
2017-12-20T01:58:23.903Z,81.13
2017-12-20T02:00:52.247Z,81.42
2017-12-20T02:03:20.501Z,81.66
2017-12-20T02:05:48.752Z,81.70
2017-12-20T02:08:17.031Z,81.45
2017-12-20T02:10:45.293Z,81.30
2017-12-20T02:13:13.564Z,81.43
2017-12-20T02:15:41.836Z,81.01
2017-12-20T02:18:10.128Z,80.75
2017-12-20T02:20:38.386Z,80.16
2017-12-20T02:23:06.689Z,80.67
2017-12-20T02:25:34.950Z,80.93
2017-12-20T02:28:03.216Z,80.21
2017-12-20T02:30:31.509Z,80.20
2017-12-20T02:32:59.769Z,80.60
2017-12-20T02:35:28.051Z,81.11
2017-12-20T02:37:56.322Z,81.10
2017-12-20T02:40:24.605Z,80.89
2017-12-20T02:42:52.875Z,81.37
2017-12-20T02:45:21.184Z,80.98
2017-12-20T02:47:49.447Z,80.51
2017-12-20T02:50:17.724Z,80.48
2017-12-20T02:52:45.983Z,80.09
2017-12-20T02:55:14.300Z,80.33
2017-12-20T02:57:42.552Z,80.50
2017-12-20T03:00:10.876Z,80.65
2017-12-20T03:02:39.164Z,80.51
2017-12-20T03:05:07.575Z,80.57
2017-12-20T03:07:35.852Z,80.98
2017-12-20T03:10:04.113Z,81.26
2017-12-20T03:12:32.396Z,81.55
2017-12-20T03:15:00.676Z,81.81
2017-12-20T03:17:28.959Z,81.01
2017-12-20T03:19:57.221Z,81.15
2017-12-20T03:22:25.500Z,80.72
2017-12-20T03:24:53.771Z,80.95
2017-12-20T03:27:22.067Z,80.47
2017-12-20T03:29:50.328Z,80.57
2017-12-20T03:32:18.606Z,80.60
2017-12-20T03:34:46.898Z,80.68
2017-12-20T03:37:15.163Z,80.19
2017-12-20T03:39:43.453Z,79.94
2017-12-20T03:42:11.711Z,80.21
2017-12-20T03:44:40.013Z,80.00
2017-12-20T03:47:08.260Z,79.84
2017-12-20T03:49:36.659Z,80.26
2017-12-20T03:52:04.943Z,80.05
2017-12-20T03:54:33.256Z,80.14
2017-12-20T03:57:01.535Z,80.65
2017-12-20T03:59:30.619Z,80.51
2017-12-20T04:01:58.891Z,80.08
2017-12-20T04:04:27.149Z,79.38
2017-12-20T04:06:55.478Z,79.62
2017-12-20T04:09:23.793Z,80.15
2017-12-20T04:11:52.086Z,80.53
2017-12-20T04:14:20.337Z,80.65
2017-12-20T04:16:48.622Z,80.45
2017-12-20T04:19:16.888Z,80.57
2017-12-20T04:21:45.172Z,80.51
2017-12-20T04:24:13.434Z,80.42
2017-12-20T04:26:41.792Z,80.29
2017-12-20T04:29:09.987Z,80.54
2017-12-20T04:31:38.467Z,80.82
2017-12-20T04:34:06.761Z,80.64
2017-12-20T04:36:35.146Z,80.36
2017-12-20T04:39:03.432Z,80.48
2017-12-20T04:41:31.690Z,80.62
2017-12-20T04:43:59.983Z,81.30
2017-12-20T04:46:28.239Z,81.05
2017-12-20T04:48:56.514Z,81.34
2017-12-20T04:51:24.784Z,81.45
2017-12-20T04:53:53.094Z,81.36
2017-12-20T04:56:21.356Z,81.58
2017-12-20T04:58:49.646Z,81.70
2017-12-20T05:01:17.902Z,81.79
2017-12-20T05:03:46.179Z,81.63
2017-12-20T05:06:14.487Z,81.14
2017-12-20T05:08:42.767Z,81.15
2017-12-20T05:11:11.018Z,81.14
2017-12-20T05:13:39.287Z,80.78
2017-12-20T05:16:07.594Z,81.09
2017-12-20T05:18:35.896Z,80.98
2017-12-20T05:21:04.831Z,81.01
2017-12-20T05:23:33.087Z,81.10
2017-12-20T05:26:01.670Z,80.93
2017-12-20T05:28:29.908Z,80.48
2017-12-20T05:30:58.245Z,80.26
2017-12-20T05:33:26.507Z,81.00
2017-12-20T05:35:54.796Z,80.24
2017-12-20T05:38:23.076Z,79.89
2017-12-20T05:40:51.419Z,79.58
2017-12-20T05:43:19.671Z,79.64
2017-12-20T05:45:47.956Z,79.47
2017-12-20T05:48:16.252Z,80.26
2017-12-20T05:50:44.536Z,80.24
2017-12-20T05:53:12.829Z,80.49
2017-12-20T05:55:41.090Z,80.68
2017-12-20T05:58:09.455Z,80.89
2017-12-20T06:00:37.956Z,80.81
2017-12-20T06:03:06.271Z,80.91
2017-12-20T06:05:34.526Z,80.19
2017-12-20T06:08:02.859Z,80.10
2017-12-20T06:10:31.147Z,80.19
2017-12-20T06:12:59.442Z,79.62
2017-12-20T06:15:27.726Z,79.19
2017-12-20T06:17:56.001Z,79.54
2017-12-20T06:20:24.338Z,79.56
2017-12-20T06:22:52.620Z,79.09
2017-12-20T06:25:20.922Z,79.29
2017-12-20T06:27:49.188Z,79.65
2017-12-20T06:30:17.488Z,79.76
2017-12-20T06:32:45.760Z,79.98
2017-12-20T06:35:14.095Z,80.35
2017-12-20T06:37:42.403Z,80.61
2017-12-20T06:40:10.666Z,80.46
2017-12-20T06:42:38.960Z,80.37
2017-12-20T06:45:07.391Z,80.54
2017-12-20T06:47:35.649Z,80.00
2017-12-20T06:50:04.528Z,79.81
2017-12-20T06:52:32.823Z,80.12
2017-12-20T06:55:01.099Z,80.24
2017-12-20T06:57:29.387Z,79.65
2017-12-20T06:59:57.650Z,79.77
2017-12-20T07:02:25.942Z,80.12
2017-12-20T07:04:54.267Z,80.19
2017-12-20T07:07:22.491Z,80.45
2017-12-20T07:09:50.791Z,80.44
2017-12-20T07:12:19.105Z,80.43
2017-12-20T07:14:47.372Z,80.36
2017-12-20T07:17:15.665Z,80.46
2017-12-20T07:19:44.243Z,80.37
2017-12-20T07:22:12.548Z,80.43
2017-12-20T07:24:40.907Z,80.62
2017-12-20T07:27:09.160Z,80.07
2017-12-20T07:29:37.459Z,79.64
2017-12-20T07:32:05.768Z,79.51
2017-12-20T07:34:34.068Z,79.45
2017-12-20T07:37:02.339Z,79.66
2017-12-20T07:39:30.634Z,79.67
2017-12-20T07:41:58.999Z,80.07
2017-12-20T07:44:27.299Z,80.27
2017-12-20T07:46:55.571Z,80.11
2017-12-20T07:49:23.855Z,80.49
2017-12-20T07:51:52.119Z,80.66
2017-12-20T07:54:20.415Z,80.50
2017-12-20T07:56:49.022Z,80.74
2017-12-20T07:59:17.969Z,80.58
2017-12-20T08:01:46.272Z,80.84
2017-12-20T08:04:14.584Z,80.77
2017-12-20T08:06:42.898Z,80.86
2017-12-20T08:09:11.180Z,80.77
2017-12-20T08:11:39.469Z,80.55
2017-12-20T08:14:07.732Z,79.42
2017-12-20T08:16:36.082Z,79.63
2017-12-20T08:19:04.386Z,79.22
2017-12-20T08:21:32.693Z,79.24
2017-12-20T08:24:01.056Z,79.54
2017-12-20T08:26:29.370Z,79.55
2017-12-20T08:28:57.651Z,78.86
2017-12-20T08:31:26.131Z,79.45
2017-12-20T08:33:54.467Z,79.26
2017-12-20T08:36:22.767Z,79.80
2017-12-20T08:38:51.047Z,79.70
2017-12-20T08:41:19.310Z,79.82
2017-12-20T08:43:47.718Z,79.61
2017-12-20T08:46:15.972Z,79.92
2017-12-20T08:48:44.286Z,80.28
2017-12-20T08:51:13.071Z,80.10
2017-12-20T08:53:41.319Z,79.85
2017-12-20T08:56:09.594Z,80.80
2017-12-20T08:58:37.967Z,80.69
2017-12-20T09:01:06.259Z,79.88
2017-12-20T09:03:34.625Z,80.30
2017-12-20T09:06:02.916Z,80.71
2017-12-20T09:08:31.192Z,81.20
2017-12-20T09:10:59.501Z,81.13
2017-12-20T09:13:27.777Z,81.09
2017-12-20T09:15:56.629Z,81.09
2017-12-20T09:18:24.864Z,80.74
2017-12-20T09:20:53.220Z,80.51
2017-12-20T09:23:21.458Z,80.87
2017-12-20T09:25:49.720Z,80.83
2017-12-20T09:28:18.022Z,81.11
2017-12-20T09:30:46.583Z,81.09
2017-12-20T09:33:14.924Z,81.20
2017-12-20T09:35:44.127Z,81.30
2017-12-20T09:38:12.468Z,81.49
2017-12-20T09:40:40.745Z,81.19
2017-12-20T09:43:09.094Z,81.39
2017-12-20T09:45:37.389Z,81.33
2017-12-20T09:48:05.665Z,81.05
2017-12-20T09:50:34.215Z,81.23
2017-12-20T09:53:02.543Z,81.28
2017-12-20T09:55:30.888Z,80.58
2017-12-20T09:57:59.121Z,81.08
2017-12-20T10:00:27.406Z,80.96
2017-12-20T10:02:55.692Z,80.89
2017-12-20T10:05:24.015Z,81.04
2017-12-20T10:07:52.302Z,81.17
2017-12-20T10:10:20.708Z,81.29
2017-12-20T10:12:48.996Z,80.34
2017-12-20T10:15:17.299Z,80.69
2017-12-20T10:17:45.792Z,80.75
2017-12-20T10:20:14.124Z,80.34
2017-12-20T10:22:42.447Z,80.23
2017-12-20T10:25:10.727Z,80.28
2017-12-20T10:27:39.083Z,78.63
2017-12-20T10:30:07.384Z,78.28
2017-12-20T10:32:35.679Z,77.82
2017-12-20T10:35:04.915Z,78.48
2017-12-20T10:37:33.195Z,79.24
2017-12-20T10:40:01.501Z,79.01
2017-12-20T10:42:29.779Z,79.16
2017-12-20T10:44:58.058Z,79.01
2017-12-20T10:47:26.407Z,78.93
2017-12-20T10:49:54.726Z,79.30
2017-12-20T10:52:23.005Z,78.87
2017-12-20T10:54:51.338Z,77.79
2017-12-20T10:57:19.665Z,78.27
2017-12-20T10:59:48.061Z,78.23
2017-12-20T11:02:16.336Z,78.72
2017-12-20T11:04:44.689Z,78.16
2017-12-20T11:07:12.939Z,77.46
2017-12-20T11:09:41.265Z,78.06
2017-12-20T11:12:09.537Z,78.30
2017-12-20T11:14:39.043Z,78.63
2017-12-20T11:17:07.325Z,79.13
2017-12-20T11:19:35.580Z,79.27
2017-12-20T11:22:03.866Z,79.63
2017-12-20T11:24:32.158Z,80.87
2017-12-20T11:27:00.465Z,80.22
2017-12-20T11:29:28.727Z,80.19
2017-12-20T11:31:57.046Z,79.82
2017-12-20T11:34:25.315Z,79.89
2017-12-20T11:36:53.621Z,79.63
2017-12-20T11:39:22.004Z,79.38
2017-12-20T11:41:50.274Z,78.94
2017-12-20T11:44:19.646Z,79.10
2017-12-20T11:46:47.961Z,79.00
2017-12-20T11:49:16.278Z,79.13
2017-12-20T11:51:44.530Z,79.21
2017-12-20T11:54:12.831Z,78.89
2017-12-20T11:56:41.105Z,78.47
2017-12-20T11:59:09.548Z,79.15
2017-12-20T12:01:37.823Z,79.21
2017-12-20T12:04:07.025Z,78.93
2017-12-20T12:06:35.350Z,79.24
2017-12-20T12:09:03.576Z,78.79
2017-12-20T12:11:31.884Z,78.83
2017-12-20T12:14:00.152Z,78.56
2017-12-20T12:16:28.460Z,78.17
2017-12-20T12:18:56.705Z,79.16
2017-12-20T12:21:24.998Z,79.11
2017-12-20T12:23:53.274Z,79.21
2017-12-20T12:26:21.563Z,78.89
2017-12-20T12:28:49.819Z,79.50
2017-12-20T12:31:18.251Z,79.54
2017-12-20T12:33:46.556Z,80.02
2017-12-20T12:36:14.817Z,79.52
2017-12-20T12:38:43.953Z,80.09
2017-12-20T12:41:12.233Z,79.41
2017-12-20T12:43:40.969Z,79.33
2017-12-20T12:46:09.688Z,78.21
2017-12-20T12:48:37.981Z,78.20
2017-12-20T12:51:06.327Z,78.78
2017-12-20T12:53:34.761Z,78.26
2017-12-20T12:56:03.037Z,78.10
2017-12-20T12:58:31.339Z,78.09
2017-12-20T13:00:59.615Z,77.71
2017-12-20T13:03:27.942Z,78.16
2017-12-20T13:05:56.389Z,78.20
2017-12-20T13:08:24.654Z,78.86
2017-12-20T13:10:52.971Z,78.99
2017-12-20T13:13:21.215Z,79.26
2017-12-20T13:15:49.527Z,79.45
2017-12-20T13:18:17.803Z,79.41
2017-12-20T13:20:46.206Z,79.52
2017-12-20T13:23:14.490Z,79.94
2017-12-20T13:25:43.108Z,79.75
2017-12-20T13:28:11.367Z,79.56
2017-12-20T13:30:39.759Z,79.37
2017-12-20T13:33:08.042Z,79.28
2017-12-20T13:35:36.313Z,79.60
2017-12-20T13:38:05.537Z,79.86
2017-12-20T13:40:33.819Z,81.02
2017-12-20T13:43:02.127Z,79.86
2017-12-20T13:45:31.628Z,79.98
2017-12-20T13:47:59.923Z,80.14
2017-12-20T13:50:28.261Z,80.16
2017-12-20T13:52:56.538Z,80.60
2017-12-20T13:55:24.825Z,80.88
2017-12-20T13:57:53.181Z,81.69
2017-12-20T14:00:21.465Z,81.89
2017-12-20T14:02:50.024Z,82.27
2017-12-20T14:05:18.329Z,82.58
2017-12-20T14:07:46.592Z,82.71
2017-12-20T14:10:14.875Z,82.67
2017-12-20T14:12:43.176Z,82.56
2017-12-20T14:15:11.527Z,82.14
2017-12-20T14:17:39.805Z,81.92
2017-12-20T14:20:08.088Z,81.63
2017-12-20T14:22:36.431Z,81.83
2017-12-20T14:25:05.128Z,81.43
2017-12-20T14:27:33.439Z,81.13
2017-12-20T14:30:01.745Z,81.64
2017-12-20T14:32:30.035Z,81.18
2017-12-20T14:34:58.314Z,81.02
2017-12-20T14:37:26.657Z,80.35
2017-12-20T14:39:54.908Z,80.71
2017-12-20T14:42:23.183Z,80.87
2017-12-20T14:44:51.476Z,80.48
2017-12-20T14:47:19.775Z,80.52
2017-12-20T14:49:48.083Z,81.22
2017-12-20T14:52:16.463Z,81.06
2017-12-20T14:54:44.731Z,80.40
2017-12-20T14:57:13.026Z,80.42
2017-12-20T14:59:41.335Z,81.07
2017-12-20T15:02:09.817Z,80.87
2017-12-20T15:04:38.351Z,80.66
2017-12-20T15:07:06.701Z,81.02
2017-12-20T15:09:35.021Z,81.27
2017-12-20T15:12:03.309Z,81.11
2017-12-20T15:14:31.595Z,81.08
2017-12-20T15:16:59.864Z,80.91
2017-12-20T15:19:28.152Z,81.62
2017-12-20T15:21:56.457Z,81.73
2017-12-20T15:24:24.715Z,82.46
2017-12-20T15:26:52.983Z,82.68
2017-12-20T15:29:21.326Z,81.86
2017-12-20T15:31:49.568Z,81.68
2017-12-20T15:34:18.066Z,80.99
2017-12-20T15:36:46.297Z,81.06
2017-12-20T15:39:14.767Z,81.73
2017-12-20T15:41:43.039Z,81.74
2017-12-20T15:44:11.382Z,81.61
2017-12-20T15:46:39.658Z,81.20
2017-12-20T15:49:07.948Z,81.27
2017-12-20T15:51:36.277Z,81.16
2017-12-20T15:54:04.571Z,81.58
2017-12-20T15:56:32.863Z,81.78
2017-12-20T15:59:01.455Z,81.97
2017-12-20T16:01:29.747Z,81.86
2017-12-20T16:03:58.714Z,81.56
2017-12-20T16:06:26.977Z,80.59
2017-12-20T16:08:55.264Z,80.69
2017-12-20T16:11:23.538Z,80.71
2017-12-20T16:13:51.832Z,81.13
2017-12-20T16:16:20.270Z,81.52
2017-12-20T16:18:48.847Z,81.58
2017-12-20T16:21:17.642Z,81.58
2017-12-20T16:23:46.169Z,81.29
2017-12-20T16:26:14.518Z,81.57
2017-12-20T16:28:42.808Z,82.01
2017-12-20T16:31:11.121Z,82.03
2017-12-20T16:33:39.416Z,82.50
2017-12-20T16:36:07.740Z,82.31
2017-12-20T16:38:36.101Z,81.80
2017-12-20T16:41:05.071Z,81.21
2017-12-20T16:43:33.481Z,81.62
2017-12-20T16:46:01.735Z,81.87
2017-12-20T16:48:30.029Z,81.85
2017-12-20T16:50:58.347Z,81.59
2017-12-20T16:53:38.416Z,81.13
2017-12-20T16:56:06.773Z,80.63
2017-12-20T16:58:35.084Z,80.76
2017-12-20T17:01:03.356Z,80.93
2017-12-20T17:03:32.375Z,80.91
2017-12-20T17:06:00.669Z,80.70
2017-12-20T17:08:28.988Z,80.40
2017-12-20T17:10:57.239Z,80.67
2017-12-20T17:13:25.807Z,80.36
2017-12-20T17:15:54.152Z,80.27
2017-12-20T17:18:22.509Z,80.71
2017-12-20T17:20:50.810Z,81.00
2017-12-20T17:23:19.075Z,81.26
2017-12-20T17:25:47.379Z,81.45
2017-12-20T17:28:15.672Z,81.44
2017-12-20T17:30:43.983Z,81.45
2017-12-20T17:33:12.249Z,81.42
2017-12-20T17:35:40.545Z,81.72
2017-12-20T17:38:09.228Z,81.97
2017-12-20T17:40:37.530Z,82.02
2017-12-20T17:43:05.805Z,82.34
2017-12-20T17:45:34.115Z,82.73
2017-12-20T17:48:02.463Z,82.90
2017-12-20T17:50:30.828Z,82.82
2017-12-20T17:52:59.767Z,82.72
2017-12-20T17:55:28.104Z,82.42
2017-12-20T17:57:56.468Z,82.07
2017-12-20T18:00:24.799Z,82.62
2017-12-20T18:02:53.112Z,82.21
2017-12-20T18:05:21.388Z,81.83
2017-12-20T18:07:49.679Z,81.16
2017-12-20T18:10:17.969Z,81.01
2017-12-20T18:12:46.335Z,80.32
2017-12-20T18:15:14.609Z,79.98
2017-12-20T18:17:42.950Z,79.88
2017-12-20T18:20:11.239Z,80.29
2017-12-20T18:22:39.540Z,80.27
2017-12-20T18:25:07.907Z,80.37
2017-12-20T18:27:36.149Z,80.40
2017-12-20T18:30:04.924Z,80.60
2017-12-20T18:32:33.188Z,80.54
2017-12-20T18:35:01.469Z,80.65
2017-12-20T18:37:29.769Z,80.63
2017-12-20T18:39:58.085Z,80.64
2017-12-20T18:42:26.369Z,79.92
2017-12-20T18:44:54.648Z,80.14
2017-12-20T18:47:23.004Z,80.27
2017-12-20T18:49:51.272Z,79.98
2017-12-20T18:52:19.584Z,80.17
2017-12-20T18:54:47.884Z,79.34
2017-12-20T18:57:16.174Z,79.27
2017-12-20T18:59:44.760Z,79.04
2017-12-20T19:02:13.074Z,78.70
2017-12-20T19:04:41.387Z,78.88
2017-12-20T19:07:09.723Z,78.44
2017-12-20T19:09:38.024Z,78.41
2017-12-20T19:12:06.328Z,78.35
2017-12-20T19:14:34.818Z,78.25
2017-12-20T19:17:03.164Z,78.25
2017-12-20T19:19:31.423Z,78.48
2017-12-20T19:21:59.748Z,78.74
2017-12-20T19:24:28.222Z,78.38
2017-12-20T19:26:56.595Z,79.13
2017-12-20T19:29:26.319Z,79.93
2017-12-20T19:31:54.642Z,79.95
2017-12-20T19:34:22.921Z,80.07
2017-12-20T19:36:51.200Z,80.23
2017-12-20T19:39:20.228Z,80.68
2017-12-20T19:41:48.508Z,80.98
2017-12-20T19:44:16.851Z,81.11
2017-12-20T19:46:45.205Z,81.25
2017-12-20T19:49:13.487Z,81.37
2017-12-20T19:51:41.812Z,80.49
2017-12-20T19:54:10.146Z,80.56
2017-12-20T19:56:38.400Z,80.50
2017-12-20T19:59:06.912Z,79.69
2017-12-20T20:01:35.180Z,79.93
2017-12-20T20:04:03.466Z,80.10
2017-12-20T20:06:31.834Z,80.30
2017-12-20T20:09:00.138Z,80.03
2017-12-20T20:11:28.431Z,79.39
2017-12-20T20:13:56.757Z,79.07
2017-12-20T20:16:25.042Z,78.83
2017-12-20T20:18:53.346Z,78.95
2017-12-20T20:21:21.686Z,80.02
2017-12-20T20:23:49.993Z,79.97
2017-12-20T20:26:18.253Z,80.22
2017-12-20T20:28:46.553Z,80.51
2017-12-20T20:31:14.851Z,80.22
2017-12-20T20:33:43.153Z,80.10
2017-12-20T20:36:11.438Z,80.24
2017-12-20T20:38:39.745Z,80.59
2017-12-20T20:41:08.063Z,80.25
2017-12-20T20:43:36.359Z,80.52
2017-12-20T20:46:05.037Z,80.67
2017-12-20T20:48:33.336Z,80.26
2017-12-20T20:51:01.602Z,80.42
2017-12-20T20:53:30.212Z,79.96
2017-12-20T20:55:58.602Z,79.93
2017-12-20T20:58:26.902Z,79.63
2017-12-20T21:00:55.218Z,79.52
2017-12-20T21:03:23.485Z,79.54
2017-12-20T21:05:51.815Z,79.25
2017-12-20T21:08:20.164Z,79.14
2017-12-20T21:10:48.487Z,78.96
2017-12-20T21:13:16.777Z,79.47
2017-12-20T21:15:45.106Z,80.04
2017-12-20T21:18:13.444Z,80.03
2017-12-20T21:20:41.772Z,80.01
2017-12-20T21:23:10.080Z,79.52
2017-12-20T21:25:38.365Z,79.42
2017-12-20T21:28:06.648Z,79.91
2017-12-20T21:30:34.980Z,80.54
2017-12-20T21:33:03.319Z,80.47
2017-12-20T21:35:31.596Z,81.02
2017-12-20T21:37:59.900Z,80.59
2017-12-20T21:40:28.147Z,79.87
2017-12-20T21:42:56.451Z,79.59
2017-12-20T21:45:24.723Z,79.32
2017-12-20T21:47:53.039Z,79.37
2017-12-20T21:50:21.309Z,79.60
2017-12-20T21:52:49.615Z,79.35
2017-12-20T21:55:17.896Z,79.28
2017-12-20T21:57:46.172Z,79.58
2017-12-20T22:00:14.532Z,80.34
2017-12-20T22:02:42.804Z,81.03
2017-12-20T22:05:11.101Z,81.39
2017-12-20T22:07:39.405Z,81.51
2017-12-20T22:10:07.751Z,81.63
2017-12-20T22:12:36.012Z,81.67
2017-12-20T22:15:05.009Z,81.13
2017-12-20T22:17:33.295Z,80.96
2017-12-20T22:20:01.594Z,80.96
2017-12-20T22:22:29.881Z,80.51
2017-12-20T22:24:58.178Z,80.52
2017-12-20T22:27:26.451Z,80.20
2017-12-20T22:29:54.740Z,79.99
2017-12-20T22:32:23.037Z,79.84
2017-12-20T22:34:51.327Z,80.14
2017-12-20T22:37:19.620Z,79.98
2017-12-20T22:39:47.932Z,79.48
2017-12-20T22:42:16.215Z,79.68
2017-12-20T22:44:44.483Z,79.57
2017-12-20T22:47:12.786Z,79.48
2017-12-20T22:49:41.068Z,78.95
2017-12-20T22:52:09.356Z,79.33
2017-12-20T22:54:37.626Z,79.40
2017-12-20T22:57:05.920Z,79.36
2017-12-20T22:59:34.215Z,79.34
2017-12-20T23:02:03.011Z,79.42
2017-12-20T23:04:31.383Z,79.00
2017-12-20T23:06:59.660Z,79.24
2017-12-20T23:09:27.946Z,79.43
2017-12-20T23:11:56.223Z,79.56
2017-12-20T23:14:24.579Z,79.71
2017-12-20T23:16:52.833Z,79.35
2017-12-20T23:19:21.107Z,79.31
2017-12-20T23:21:49.409Z,79.40
2017-12-20T23:24:17.686Z,79.38
2017-12-20T23:26:45.967Z,78.97
2017-12-20T23:29:14.286Z,78.78
2017-12-20T23:31:42.591Z,79.10
2017-12-20T23:34:10.846Z,79.66
2017-12-20T23:36:39.141Z,79.93
2017-12-20T23:39:07.415Z,79.73
2017-12-20T23:41:35.723Z,80.07
2017-12-20T23:44:03.980Z,80.16
2017-12-20T23:46:32.276Z,80.27
2017-12-20T23:49:00.601Z,80.56
2017-12-20T23:51:28.928Z,80.88
2017-12-20T23:53:57.193Z,80.83
2017-12-20T23:56:25.449Z,81.14
2017-12-20T23:58:53.754Z,82.07
